sensor_id;sensor_type;location;lat;lon;timestamp;temperature;humidity
26262;DHT22;13988;52.446;13.280;2023-08-08T00:00:11;13.70;99.90
26262;DHT22;13988;52.446;13.280;2023-08-08T00:02:37;13.70;99.90
26262;DHT22;13988;52.446;13.280;2023-08-08T00:05:03;13.70;99.90
26262;DHT22;13988;52.446;13.280;2023-08-08T00:07:29;13.60;99.90
26262;DHT22;13988;52.446;13.280;2023-08-08T00:09:57;13.60;99.90
26262;DHT22;13988;52.446;13.280;2023-08-08T00:12:23;13.60;99.90
26262;DHT22;13988;52.446;13.280;2023-08-08T00:14:49;13.60;99.90
26262;DHT22;13988;52.446;13.280;2023-08-08T00:17:14;13.60;99.90
26262;DHT22;13988;52.446;13.280;2023-08-08T00:19:40;13.50;99.90
26262;DHT22;13988;52.446;13.280;2023-08-08T00:22:06;13.50;99.90
26262;DHT22;13988;52.446;13.280;2023-08-08T00:24:32;13.50;99.90
26262;DHT22;13988;52.446;13.280;2023-08-08T00:26:57;13.40;99.90
26262;DHT22;13988;52.446;13.280;2023-08-08T00:29:23;13.40;99.90
26262;DHT22;13988;52.446;13.280;2023-08-08T00:31:49;13.40;99.90
26262;DHT22;13988;52.446;13.280;2023-08-08T00:34:14;13.40;99.90
26262;DHT22;13988;52.446;13.280;2023-08-08T00:36:40;13.40;99.90
26262;DHT22;13988;52.446;13.280;2023-08-08T00:39:05;13.30;99.90
26262;DHT22;13988;52.446;13.280;2023-08-08T00:41:31;13.30;99.90
26262;DHT22;13988;52.446;13.280;2023-08-08T00:43:56;13.30;99.90
26262;DHT22;13988;52.446;13.280;2023-08-08T00:46:22;13.30;99.90
26262;DHT22;13988;52.446;13.280;2023-08-08T00:48:52;13.20;99.90
26262;DHT22;13988;52.446;13.280;2023-08-08T00:51:19;13.20;99.90
26262;DHT22;13988;52.446;13.280;2023-08-08T00:53:46;13.20;99.90
26262;DHT22;13988;52.446;13.280;2023-08-08T00:56:13;13.20;99.90
26262;DHT22;13988;52.446;13.280;2023-08-08T00:58:40;13.20;99.90
26262;DHT22;13988;52.446;13.280;2023-08-08T01:01:05;13.20;99.90
26262;DHT22;13988;52.446;13.280;2023-08-08T01:03:31;13.20;99.90
26262;DHT22;13988;52.446;13.280;2023-08-08T01:06:13;13.10;99.90
26262;DHT22;13988;52.446;13.280;2023-08-08T01:08:54;13.10;99.90
26262;DHT22;13988;52.446;13.280;2023-08-08T01:11:21;13.10;99.90
26262;DHT22;13988;52.446;13.280;2023-08-08T01:13:47;13.00;99.90
26262;DHT22;13988;52.446;13.280;2023-08-08T01:16:13;13.00;99.90
26262;DHT22;13988;52.446;13.280;2023-08-08T01:18:40;13.00;99.90
26262;DHT22;13988;52.446;13.280;2023-08-08T01:21:06;13.00;99.90
26262;DHT22;13988;52.446;13.280;2023-08-08T01:26:05;13.00;99.90
26262;DHT22;13988;52.446;13.280;2023-08-08T01:28:31;13.00;99.90
26262;DHT22;13988;52.446;13.280;2023-08-08T01:30:57;13.00;99.90
26262;DHT22;13988;52.446;13.280;2023-08-08T01:33:23;12.90;99.90
26262;DHT22;13988;52.446;13.280;2023-08-08T01:35:53;12.90;99.90
26262;DHT22;13988;52.446;13.280;2023-08-08T01:38:36;12.90;99.90
26262;DHT22;13988;52.446;13.280;2023-08-08T01:41:04;12.90;99.90
26262;DHT22;13988;52.446;13.280;2023-08-08T01:43:30;12.90;99.90
26262;DHT22;13988;52.446;13.280;2023-08-08T01:45:58;12.90;99.90
26262;DHT22;13988;52.446;13.280;2023-08-08T01:48:24;12.90;99.90
26262;DHT22;13988;52.446;13.280;2023-08-08T01:50:50;12.80;99.90
26262;DHT22;13988;52.446;13.280;2023-08-08T01:53:15;12.80;99.90
26262;DHT22;13988;52.446;13.280;2023-08-08T01:55:41;12.80;99.90
26262;DHT22;13988;52.446;13.280;2023-08-08T01:58:07;12.80;99.90
26262;DHT22;13988;52.446;13.280;2023-08-08T02:00:32;12.80;99.90
26262;DHT22;13988;52.446;13.280;2023-08-08T02:02:58;12.90;99.90
26262;DHT22;13988;52.446;13.280;2023-08-08T02:05:24;12.80;99.90
26262;DHT22;13988;52.446;13.280;2023-08-08T02:07:49;12.90;99.90
26262;DHT22;13988;52.446;13.280;2023-08-08T02:10:15;12.90;99.90
26262;DHT22;13988;52.446;13.280;2023-08-08T02:12:40;12.80;99.90
26262;DHT22;13988;52.446;13.280;2023-08-08T02:15:06;12.80;99.90
26262;DHT22;13988;52.446;13.280;2023-08-08T02:17:32;12.80;99.90
26262;DHT22;13988;52.446;13.280;2023-08-08T02:19:58;12.80;99.90
26262;DHT22;13988;52.446;13.280;2023-08-08T02:22:23;12.70;99.90
26262;DHT22;13988;52.446;13.280;2023-08-08T02:24:49;12.70;99.90
26262;DHT22;13988;52.446;13.280;2023-08-08T02:27:15;12.80;99.90
26262;DHT22;13988;52.446;13.280;2023-08-08T02:29:40;12.80;99.90
26262;DHT22;13988;52.446;13.280;2023-08-08T02:32:06;12.80;99.90
26262;DHT22;13988;52.446;13.280;2023-08-08T02:34:32;12.80;99.90
26262;DHT22;13988;52.446;13.280;2023-08-08T02:36:57;12.80;99.90
26262;DHT22;13988;52.446;13.280;2023-08-08T02:39:23;12.70;99.90
26262;DHT22;13988;52.446;13.280;2023-08-08T02:41:49;12.70;99.90
26262;DHT22;13988;52.446;13.280;2023-08-08T02:44:14;12.70;99.90
26262;DHT22;13988;52.446;13.280;2023-08-08T02:46:40;12.70;99.90
26262;DHT22;13988;52.446;13.280;2023-08-08T02:49:05;12.70;99.90
26262;DHT22;13988;52.446;13.280;2023-08-08T02:51:31;12.70;99.90
26262;DHT22;13988;52.446;13.280;2023-08-08T02:53:57;12.70;99.90
26262;DHT22;13988;52.446;13.280;2023-08-08T02:56:22;12.70;99.90
26262;DHT22;13988;52.446;13.280;2023-08-08T02:58:48;12.70;99.90
26262;DHT22;13988;52.446;13.280;2023-08-08T03:01:14;12.70;99.90
26262;DHT22;13988;52.446;13.280;2023-08-08T03:03:41;12.70;99.90
26262;DHT22;13988;52.446;13.280;2023-08-08T03:06:07;12.70;99.90
26262;DHT22;13988;52.446;13.280;2023-08-08T03:08:32;12.70;99.90
26262;DHT22;13988;52.446;13.280;2023-08-08T03:10:58;12.70;99.90
26262;DHT22;13988;52.446;13.280;2023-08-08T03:13:24;12.60;99.90
26262;DHT22;13988;52.446;13.280;2023-08-08T03:15:49;12.60;99.90
26262;DHT22;13988;52.446;13.280;2023-08-08T03:18:15;12.60;99.90
26262;DHT22;13988;52.446;13.280;2023-08-08T03:20:41;12.60;99.90
26262;DHT22;13988;52.446;13.280;2023-08-08T03:23:06;12.60;99.90
26262;DHT22;13988;52.446;13.280;2023-08-08T03:25:32;12.50;99.90
26262;DHT22;13988;52.446;13.280;2023-08-08T03:27:58;12.50;99.90
26262;DHT22;13988;52.446;13.280;2023-08-08T03:30:23;12.50;99.90
26262;DHT22;13988;52.446;13.280;2023-08-08T03:32:49;12.60;99.90
26262;DHT22;13988;52.446;13.280;2023-08-08T03:35:14;12.60;99.90
26262;DHT22;13988;52.446;13.280;2023-08-08T03:37:41;12.60;99.90
26262;DHT22;13988;52.446;13.280;2023-08-08T03:40:07;12.60;99.90
26262;DHT22;13988;52.446;13.280;2023-08-08T03:42:33;12.60;99.90
26262;DHT22;13988;52.446;13.280;2023-08-08T03:44:59;12.60;99.90
26262;DHT22;13988;52.446;13.280;2023-08-08T03:47:25;12.50;99.90
26262;DHT22;13988;52.446;13.280;2023-08-08T03:49:51;12.60;99.90
26262;DHT22;13988;52.446;13.280;2023-08-08T03:52:20;12.70;99.90
26262;DHT22;13988;52.446;13.280;2023-08-08T03:54:46;12.70;99.90
26262;DHT22;13988;52.446;13.280;2023-08-08T03:57:12;12.70;99.90
26262;DHT22;13988;52.446;13.280;2023-08-08T03:59:38;12.60;99.90
26262;DHT22;13988;52.446;13.280;2023-08-08T04:02:03;12.70;99.90
26262;DHT22;13988;52.446;13.280;2023-08-08T04:04:29;12.70;99.90
26262;DHT22;13988;52.446;13.280;2023-08-08T04:06:55;12.80;99.90
26262;DHT22;13988;52.446;13.280;2023-08-08T04:09:21;12.90;99.90
26262;DHT22;13988;52.446;13.280;2023-08-08T04:11:46;12.90;99.90
26262;DHT22;13988;52.446;13.280;2023-08-08T04:14:12;13.00;99.90
26262;DHT22;13988;52.446;13.280;2023-08-08T04:16:38;13.00;99.90
26262;DHT22;13988;52.446;13.280;2023-08-08T04:19:04;13.00;99.90
26262;DHT22;13988;52.446;13.280;2023-08-08T04:21:30;13.00;99.90
26262;DHT22;13988;52.446;13.280;2023-08-08T04:23:58;13.00;99.90
26262;DHT22;13988;52.446;13.280;2023-08-08T04:26:23;13.00;99.90
26262;DHT22;13988;52.446;13.280;2023-08-08T04:28:49;13.00;99.90
26262;DHT22;13988;52.446;13.280;2023-08-08T04:31:15;13.00;99.90
26262;DHT22;13988;52.446;13.280;2023-08-08T04:33:40;13.00;99.90
26262;DHT22;13988;52.446;13.280;2023-08-08T04:36:06;13.10;99.90
26262;DHT22;13988;52.446;13.280;2023-08-08T04:38:31;13.10;99.90
26262;DHT22;13988;52.446;13.280;2023-08-08T04:40:57;13.00;99.90
26262;DHT22;13988;52.446;13.280;2023-08-08T04:43:23;13.00;99.90
26262;DHT22;13988;52.446;13.280;2023-08-08T04:45:48;13.10;99.90
26262;DHT22;13988;52.446;13.280;2023-08-08T04:48:14;13.10;99.90
26262;DHT22;13988;52.446;13.280;2023-08-08T04:50:39;13.10;99.90
26262;DHT22;13988;52.446;13.280;2023-08-08T04:53:06;13.10;99.90
26262;DHT22;13988;52.446;13.280;2023-08-08T04:55:31;13.10;99.90
26262;DHT22;13988;52.446;13.280;2023-08-08T04:57:57;13.10;99.90
26262;DHT22;13988;52.446;13.280;2023-08-08T05:00:23;13.20;99.90
26262;DHT22;13988;52.446;13.280;2023-08-08T05:02:48;13.20;99.90
26262;DHT22;13988;52.446;13.280;2023-08-08T05:05:14;13.30;99.90
26262;DHT22;13988;52.446;13.280;2023-08-08T05:07:40;13.40;99.90
26262;DHT22;13988;52.446;13.280;2023-08-08T05:10:06;13.40;99.90
26262;DHT22;13988;52.446;13.280;2023-08-08T05:12:32;13.40;99.90
26262;DHT22;13988;52.446;13.280;2023-08-08T05:14:57;13.40;99.90
26262;DHT22;13988;52.446;13.280;2023-08-08T05:17:23;13.50;99.90
26262;DHT22;13988;52.446;13.280;2023-08-08T05:19:49;13.60;99.90
26262;DHT22;13988;52.446;13.280;2023-08-08T05:22:14;13.60;99.90
26262;DHT22;13988;52.446;13.280;2023-08-08T05:24:40;13.70;99.90
26262;DHT22;13988;52.446;13.280;2023-08-08T05:27:05;13.70;99.90
26262;DHT22;13988;52.446;13.280;2023-08-08T05:29:31;13.80;99.90
26262;DHT22;13988;52.446;13.280;2023-08-08T05:31:57;13.90;99.90
26262;DHT22;13988;52.446;13.280;2023-08-08T05:34:24;14.00;99.90
26262;DHT22;13988;52.446;13.280;2023-08-08T05:36:49;14.10;99.90
26262;DHT22;13988;52.446;13.280;2023-08-08T05:39:15;14.20;99.90
26262;DHT22;13988;52.446;13.280;2023-08-08T05:41:41;14.30;99.90
26262;DHT22;13988;52.446;13.280;2023-08-08T05:44:06;14.40;99.90
26262;DHT22;13988;52.446;13.280;2023-08-08T05:46:32;14.40;99.90
26262;DHT22;13988;52.446;13.280;2023-08-08T05:48:57;14.40;99.90
26262;DHT22;13988;52.446;13.280;2023-08-08T05:51:23;14.30;99.90
26262;DHT22;13988;52.446;13.280;2023-08-08T05:53:49;14.30;99.90
26262;DHT22;13988;52.446;13.280;2023-08-08T05:56:14;14.30;99.90
26262;DHT22;13988;52.446;13.280;2023-08-08T05:58:40;14.40;99.90
26262;DHT22;13988;52.446;13.280;2023-08-08T06:01:05;14.50;99.90
26262;DHT22;13988;52.446;13.280;2023-08-08T06:03:34;14.60;99.90
26262;DHT22;13988;52.446;13.280;2023-08-08T06:06:01;14.60;99.90
26262;DHT22;13988;52.446;13.280;2023-08-08T06:08:26;14.60;99.90
26262;DHT22;13988;52.446;13.280;2023-08-08T06:10:52;14.60;99.90
26262;DHT22;13988;52.446;13.280;2023-08-08T06:13:17;14.60;99.90
26262;DHT22;13988;52.446;13.280;2023-08-08T06:15:43;14.50;99.90
26262;DHT22;13988;52.446;13.280;2023-08-08T06:18:09;14.50;99.90
26262;DHT22;13988;52.446;13.280;2023-08-08T06:20:34;14.80;99.90
26262;DHT22;13988;52.446;13.280;2023-08-08T06:23:00;15.10;99.90
26262;DHT22;13988;52.446;13.280;2023-08-08T06:25:26;15.30;99.90
26262;DHT22;13988;52.446;13.280;2023-08-08T06:27:51;15.20;99.90
26262;DHT22;13988;52.446;13.280;2023-08-08T06:30:17;15.10;99.90
26262;DHT22;13988;52.446;13.280;2023-08-08T06:32:43;15.10;99.90
26262;DHT22;13988;52.446;13.280;2023-08-08T06:35:08;15.00;99.90
26262;DHT22;13988;52.446;13.280;2023-08-08T06:37:34;15.00;99.90
26262;DHT22;13988;52.446;13.280;2023-08-08T06:40:00;14.80;99.90
26262;DHT22;13988;52.446;13.280;2023-08-08T06:42:25;14.90;99.90
26262;DHT22;13988;52.446;13.280;2023-08-08T06:44:51;14.90;99.90
26262;DHT22;13988;52.446;13.280;2023-08-08T06:47:17;15.00;99.90
26262;DHT22;13988;52.446;13.280;2023-08-08T06:49:42;15.00;99.90
26262;DHT22;13988;52.446;13.280;2023-08-08T06:52:08;14.90;99.90
26262;DHT22;13988;52.446;13.280;2023-08-08T06:54:34;14.90;99.90
26262;DHT22;13988;52.446;13.280;2023-08-08T06:57:00;14.90;99.90
26262;DHT22;13988;52.446;13.280;2023-08-08T06:59:27;15.10;99.90
26262;DHT22;13988;52.446;13.280;2023-08-08T07:01:53;15.50;99.90
26262;DHT22;13988;52.446;13.280;2023-08-08T07:04:19;15.60;99.90
26262;DHT22;13988;52.446;13.280;2023-08-08T07:06:44;15.90;99.90
26262;DHT22;13988;52.446;13.280;2023-08-08T07:09:11;15.90;99.90
26262;DHT22;13988;52.446;13.280;2023-08-08T07:11:37;16.80;99.90
26262;DHT22;13988;52.446;13.280;2023-08-08T07:14:03;17.30;99.90
26262;DHT22;13988;52.446;13.280;2023-08-08T07:16:28;17.10;99.90
26262;DHT22;13988;52.446;13.280;2023-08-08T07:18:54;16.70;99.90
26262;DHT22;13988;52.446;13.280;2023-08-08T07:21:20;16.30;99.90
26262;DHT22;13988;52.446;13.280;2023-08-08T07:23:46;16.90;99.90
26262;DHT22;13988;52.446;13.280;2023-08-08T07:26:11;16.90;99.90
26262;DHT22;13988;52.446;13.280;2023-08-08T07:28:37;16.70;99.90
26262;DHT22;13988;52.446;13.280;2023-08-08T07:31:03;16.70;99.90
26262;DHT22;13988;52.446;13.280;2023-08-08T07:33:28;16.60;99.90
26262;DHT22;13988;52.446;13.280;2023-08-08T07:35:54;16.40;99.90
26262;DHT22;13988;52.446;13.280;2023-08-08T07:38:20;16.30;99.90
26262;DHT22;13988;52.446;13.280;2023-08-08T07:40:45;16.10;99.90
26262;DHT22;13988;52.446;13.280;2023-08-08T07:43:11;16.00;99.90
26262;DHT22;13988;52.446;13.280;2023-08-08T07:45:37;16.00;99.90
26262;DHT22;13988;52.446;13.280;2023-08-08T07:48:03;16.00;99.90
26262;DHT22;13988;52.446;13.280;2023-08-08T07:50:29;16.10;99.90
26262;DHT22;13988;52.446;13.280;2023-08-08T07:52:55;16.30;99.90
26262;DHT22;13988;52.446;13.280;2023-08-08T07:55:20;16.60;99.90
26262;DHT22;13988;52.446;13.280;2023-08-08T07:57:46;17.00;99.90
26262;DHT22;13988;52.446;13.280;2023-08-08T08:00:12;16.60;99.90
26262;DHT22;13988;52.446;13.280;2023-08-08T08:02:42;16.70;99.90
26262;DHT22;13988;52.446;13.280;2023-08-08T08:05:08;16.80;99.90
26262;DHT22;13988;52.446;13.280;2023-08-08T08:07:35;16.90;99.90
26262;DHT22;13988;52.446;13.280;2023-08-08T08:10:05;16.70;99.90
26262;DHT22;13988;52.446;13.280;2023-08-08T08:12:32;16.80;99.90
26262;DHT22;13988;52.446;13.280;2023-08-08T08:14:58;16.80;99.90
26262;DHT22;13988;52.446;13.280;2023-08-08T08:17:24;16.60;99.90
26262;DHT22;13988;52.446;13.280;2023-08-08T08:19:52;17.00;99.90
26262;DHT22;13988;52.446;13.280;2023-08-08T08:22:18;17.10;99.90
26262;DHT22;13988;52.446;13.280;2023-08-08T08:24:44;17.00;99.90
26262;DHT22;13988;52.446;13.280;2023-08-08T08:27:11;17.20;99.90
26262;DHT22;13988;52.446;13.280;2023-08-08T08:29:37;17.30;99.90
26262;DHT22;13988;52.446;13.280;2023-08-08T08:32:03;17.40;99.90
26262;DHT22;13988;52.446;13.280;2023-08-08T08:34:29;17.40;99.90
26262;DHT22;13988;52.446;13.280;2023-08-08T08:36:55;17.30;99.90
26262;DHT22;13988;52.446;13.280;2023-08-08T08:39:20;17.10;99.90
26262;DHT22;13988;52.446;13.280;2023-08-08T08:41:49;17.10;99.90
26262;DHT22;13988;52.446;13.280;2023-08-08T08:44:16;17.10;99.90
26262;DHT22;13988;52.446;13.280;2023-08-08T08:46:42;17.20;99.90
26262;DHT22;13988;52.446;13.280;2023-08-08T08:49:10;17.10;99.90
26262;DHT22;13988;52.446;13.280;2023-08-08T08:51:37;17.20;99.90
26262;DHT22;13988;52.446;13.280;2023-08-08T08:54:04;17.10;99.90
26262;DHT22;13988;52.446;13.280;2023-08-08T08:56:30;17.20;99.90
26262;DHT22;13988;52.446;13.280;2023-08-08T08:58:57;17.10;99.90
26262;DHT22;13988;52.446;13.280;2023-08-08T09:01:23;17.30;99.90
26262;DHT22;13988;52.446;13.280;2023-08-08T09:03:49;17.40;99.90
26262;DHT22;13988;52.446;13.280;2023-08-08T09:06:15;17.30;99.90
26262;DHT22;13988;52.446;13.280;2023-08-08T09:08:42;17.30;99.90
26262;DHT22;13988;52.446;13.280;2023-08-08T09:11:08;17.50;99.90
26262;DHT22;13988;52.446;13.280;2023-08-08T09:13:37;17.90;99.90
26262;DHT22;13988;52.446;13.280;2023-08-08T09:16:09;18.10;99.90
26262;DHT22;13988;52.446;13.280;2023-08-08T09:18:35;18.10;99.90
26262;DHT22;13988;52.446;13.280;2023-08-08T09:21:06;18.40;99.90
26262;DHT22;13988;52.446;13.280;2023-08-08T09:23:32;18.20;99.90
26262;DHT22;13988;52.446;13.280;2023-08-08T09:25:58;18.10;99.90
26262;DHT22;13988;52.446;13.280;2023-08-08T09:28:24;18.20;99.90
26262;DHT22;13988;52.446;13.280;2023-08-08T09:30:50;18.20;99.90
26262;DHT22;13988;52.446;13.280;2023-08-08T09:33:17;18.20;99.90
26262;DHT22;13988;52.446;13.280;2023-08-08T09:35:43;18.00;99.90
26262;DHT22;13988;52.446;13.280;2023-08-08T09:38:08;18.10;99.90
26262;DHT22;13988;52.446;13.280;2023-08-08T09:40:34;18.20;99.90
26262;DHT22;13988;52.446;13.280;2023-08-08T09:43:00;18.00;99.90
26262;DHT22;13988;52.446;13.280;2023-08-08T09:45:26;17.90;99.90
26262;DHT22;13988;52.446;13.280;2023-08-08T09:47:51;17.80;99.90
26262;DHT22;13988;52.446;13.280;2023-08-08T09:50:18;18.30;99.90
26262;DHT22;13988;52.446;13.280;2023-08-08T09:52:46;18.20;99.90
26262;DHT22;13988;52.446;13.280;2023-08-08T09:55:11;17.80;99.90
26262;DHT22;13988;52.446;13.280;2023-08-08T09:57:39;17.70;99.90
26262;DHT22;13988;52.446;13.280;2023-08-08T10:00:06;17.60;99.90
26262;DHT22;13988;52.446;13.280;2023-08-08T10:02:45;17.50;99.90
26262;DHT22;13988;52.446;13.280;2023-08-08T10:05:13;17.40;99.90
26262;DHT22;13988;52.446;13.280;2023-08-08T10:07:40;17.40;99.90
26262;DHT22;13988;52.446;13.280;2023-08-08T10:10:08;17.60;99.90
26262;DHT22;13988;52.446;13.280;2023-08-08T10:12:39;18.20;99.90
26262;DHT22;13988;52.446;13.280;2023-08-08T10:15:09;18.40;99.90
26262;DHT22;13988;52.446;13.280;2023-08-08T10:17:38;18.10;99.90
26262;DHT22;13988;52.446;13.280;2023-08-08T10:20:07;18.40;99.90
26262;DHT22;13988;52.446;13.280;2023-08-08T10:22:41;18.60;99.90
26262;DHT22;13988;52.446;13.280;2023-08-08T10:25:07;18.80;99.90
26262;DHT22;13988;52.446;13.280;2023-08-08T10:27:35;19.00;99.90
26262;DHT22;13988;52.446;13.280;2023-08-08T10:30:05;19.00;99.90
26262;DHT22;13988;52.446;13.280;2023-08-08T10:32:58;19.00;99.90
26262;DHT22;13988;52.446;13.280;2023-08-08T10:35:36;18.80;99.90
26262;DHT22;13988;52.446;13.280;2023-08-08T10:38:08;18.80;99.90
26262;DHT22;13988;52.446;13.280;2023-08-08T10:40:34;18.90;99.90
26262;DHT22;13988;52.446;13.280;2023-08-08T10:42:59;18.90;99.90
26262;DHT22;13988;52.446;13.280;2023-08-08T10:45:35;18.70;99.90
26262;DHT22;13988;52.446;13.280;2023-08-08T10:48:08;18.60;99.90
26262;DHT22;13988;52.446;13.280;2023-08-08T10:50:39;18.30;99.90
26262;DHT22;13988;52.446;13.280;2023-08-08T10:53:08;18.00;99.90
26262;DHT22;13988;52.446;13.280;2023-08-08T10:55:37;18.00;99.90
26262;DHT22;13988;52.446;13.280;2023-08-08T10:58:08;18.20;99.90
26262;DHT22;13988;52.446;13.280;2023-08-08T11:00:36;18.10;99.90
26262;DHT22;13988;52.446;13.280;2023-08-08T11:03:03;18.50;99.90
26262;DHT22;13988;52.446;13.280;2023-08-08T11:05:32;19.00;99.90
26262;DHT22;13988;52.446;13.280;2023-08-08T11:07:59;19.40;99.90
26262;DHT22;13988;52.446;13.280;2023-08-08T11:10:25;19.50;99.90
26262;DHT22;13988;52.446;13.280;2023-08-08T11:13:00;19.20;99.90
26262;DHT22;13988;52.446;13.280;2023-08-08T11:15:27;19.40;99.90
26262;DHT22;13988;52.446;13.280;2023-08-08T11:17:55;19.60;99.90
26262;DHT22;13988;52.446;13.280;2023-08-08T11:20:22;18.80;99.90
26262;DHT22;13988;52.446;13.280;2023-08-08T11:22:52;18.30;99.90
26262;DHT22;13988;52.446;13.280;2023-08-08T11:25:18;16.70;99.90
26262;DHT22;13988;52.446;13.280;2023-08-08T11:27:54;16.10;99.90
26262;DHT22;13988;52.446;13.280;2023-08-08T11:30:21;16.10;99.90
26262;DHT22;13988;52.446;13.280;2023-08-08T11:32:48;16.20;99.90
26262;DHT22;13988;52.446;13.280;2023-08-08T11:35:20;16.20;99.90
26262;DHT22;13988;52.446;13.280;2023-08-08T11:37:47;16.00;99.90
26262;DHT22;13988;52.446;13.280;2023-08-08T11:40:14;16.10;99.90
26262;DHT22;13988;52.446;13.280;2023-08-08T11:42:40;16.20;99.90
26262;DHT22;13988;52.446;13.280;2023-08-08T11:45:09;16.60;99.90
26262;DHT22;13988;52.446;13.280;2023-08-08T11:47:35;17.30;99.90
26262;DHT22;13988;52.446;13.280;2023-08-08T11:50:05;18.30;99.90
26262;DHT22;13988;52.446;13.280;2023-08-08T11:52:32;18.60;99.90
26262;DHT22;13988;52.446;13.280;2023-08-08T11:55:01;19.20;99.90
26262;DHT22;13988;52.446;13.280;2023-08-08T11:57:27;19.80;99.90
26262;DHT22;13988;52.446;13.280;2023-08-08T11:59:53;20.50;99.90
26262;DHT22;13988;52.446;13.280;2023-08-08T12:02:19;20.40;99.90
26262;DHT22;13988;52.446;13.280;2023-08-08T12:04:45;20.60;99.90
26262;DHT22;13988;52.446;13.280;2023-08-08T12:07:11;20.40;99.90
26262;DHT22;13988;52.446;13.280;2023-08-08T12:09:37;21.00;99.90
26262;DHT22;13988;52.446;13.280;2023-08-08T12:12:03;21.60;99.90
26262;DHT22;13988;52.446;13.280;2023-08-08T12:14:30;21.40;99.90
26262;DHT22;13988;52.446;13.280;2023-08-08T12:16:55;21.80;99.90
26262;DHT22;13988;52.446;13.280;2023-08-08T12:19:25;21.60;99.90
26262;DHT22;13988;52.446;13.280;2023-08-08T12:21:53;21.80;99.90
26262;DHT22;13988;52.446;13.280;2023-08-08T12:24:19;21.10;99.90
26262;DHT22;13988;52.446;13.280;2023-08-08T12:26:44;19.80;99.90
26262;DHT22;13988;52.446;13.280;2023-08-08T12:29:10;18.90;99.90
26262;DHT22;13988;52.446;13.280;2023-08-08T12:31:35;17.50;99.90
26262;DHT22;13988;52.446;13.280;2023-08-08T12:34:01;17.00;99.90
26262;DHT22;13988;52.446;13.280;2023-08-08T12:36:27;17.40;99.90
26262;DHT22;13988;52.446;13.280;2023-08-08T12:38:52;17.50;99.90
26262;DHT22;13988;52.446;13.280;2023-08-08T12:41:18;18.30;99.90
26262;DHT22;13988;52.446;13.280;2023-08-08T12:43:44;18.60;99.90
26262;DHT22;13988;52.446;13.280;2023-08-08T12:46:09;19.00;99.90
26262;DHT22;13988;52.446;13.280;2023-08-08T12:48:35;19.50;99.90
26262;DHT22;13988;52.446;13.280;2023-08-08T12:51:00;20.00;99.90
26262;DHT22;13988;52.446;13.280;2023-08-08T12:53:26;20.70;99.90
26262;DHT22;13988;52.446;13.280;2023-08-08T12:55:52;20.30;99.90
26262;DHT22;13988;52.446;13.280;2023-08-08T12:58:18;19.60;99.90
26262;DHT22;13988;52.446;13.280;2023-08-08T13:00:44;19.30;99.90
26262;DHT22;13988;52.446;13.280;2023-08-08T13:03:10;18.90;99.90
26262;DHT22;13988;52.446;13.280;2023-08-08T13:05:38;19.60;99.90
26262;DHT22;13988;52.446;13.280;2023-08-08T13:08:04;19.30;99.90
26262;DHT22;13988;52.446;13.280;2023-08-08T13:10:30;18.80;99.90
26262;DHT22;13988;52.446;13.280;2023-08-08T13:12:56;18.80;99.90
26262;DHT22;13988;52.446;13.280;2023-08-08T13:15:21;19.30;99.90
26262;DHT22;13988;52.446;13.280;2023-08-08T13:17:47;20.00;99.90
26262;DHT22;13988;52.446;13.280;2023-08-08T13:20:13;20.40;99.90
26262;DHT22;13988;52.446;13.280;2023-08-08T13:22:39;21.00;99.90
26262;DHT22;13988;52.446;13.280;2023-08-08T13:25:05;20.60;99.90
26262;DHT22;13988;52.446;13.280;2023-08-08T13:27:31;19.90;99.90
26262;DHT22;13988;52.446;13.280;2023-08-08T13:29:57;19.40;99.90
26262;DHT22;13988;52.446;13.280;2023-08-08T13:32:23;19.10;99.90
26262;DHT22;13988;52.446;13.280;2023-08-08T13:34:49;18.90;99.90
26262;DHT22;13988;52.446;13.280;2023-08-08T13:37:15;18.40;99.90
26262;DHT22;13988;52.446;13.280;2023-08-08T13:39:41;17.70;99.90
26262;DHT22;13988;52.446;13.280;2023-08-08T13:42:08;17.10;99.90
26262;DHT22;13988;52.446;13.280;2023-08-08T13:44:34;16.50;99.90
26262;DHT22;13988;52.446;13.280;2023-08-08T13:46:59;16.20;99.90
26262;DHT22;13988;52.446;13.280;2023-08-08T13:49:25;15.90;99.90
26262;DHT22;13988;52.446;13.280;2023-08-08T13:51:53;15.90;99.90
26262;DHT22;13988;52.446;13.280;2023-08-08T13:54:19;15.70;99.90
26262;DHT22;13988;52.446;13.280;2023-08-08T13:56:45;15.80;99.90
26262;DHT22;13988;52.446;13.280;2023-08-08T13:59:10;16.10;99.90
26262;DHT22;13988;52.446;13.280;2023-08-08T14:01:37;16.10;99.90
26262;DHT22;13988;52.446;13.280;2023-08-08T14:04:03;16.40;99.90
26262;DHT22;13988;52.446;13.280;2023-08-08T14:06:28;17.20;99.90
26262;DHT22;13988;52.446;13.280;2023-08-08T14:08:54;17.80;99.90
26262;DHT22;13988;52.446;13.280;2023-08-08T14:11:20;17.90;99.90
26262;DHT22;13988;52.446;13.280;2023-08-08T14:13:45;17.70;99.90
26262;DHT22;13988;52.446;13.280;2023-08-08T14:16:11;18.00;99.90
26262;DHT22;13988;52.446;13.280;2023-08-08T14:18:37;18.60;99.90
26262;DHT22;13988;52.446;13.280;2023-08-08T14:21:03;19.00;99.90
26262;DHT22;13988;52.446;13.280;2023-08-08T14:23:30;19.00;99.90
26262;DHT22;13988;52.446;13.280;2023-08-08T14:25:55;19.30;99.90
26262;DHT22;13988;52.446;13.280;2023-08-08T14:28:21;19.30;99.90
26262;DHT22;13988;52.446;13.280;2023-08-08T14:30:47;19.40;99.90
26262;DHT22;13988;52.446;13.280;2023-08-08T14:33:14;19.50;99.90
26262;DHT22;13988;52.446;13.280;2023-08-08T14:35:40;19.60;99.90
26262;DHT22;13988;52.446;13.280;2023-08-08T14:38:05;19.70;99.90
26262;DHT22;13988;52.446;13.280;2023-08-08T14:40:31;19.70;99.90
26262;DHT22;13988;52.446;13.280;2023-08-08T14:42:57;19.90;99.90
26262;DHT22;13988;52.446;13.280;2023-08-08T14:45:24;19.80;99.90
26262;DHT22;13988;52.446;13.280;2023-08-08T14:47:50;19.60;99.90
26262;DHT22;13988;52.446;13.280;2023-08-08T14:50:16;19.60;99.90
26262;DHT22;13988;52.446;13.280;2023-08-08T14:52:42;19.50;99.90
26262;DHT22;13988;52.446;13.280;2023-08-08T14:55:08;19.30;99.90
26262;DHT22;13988;52.446;13.280;2023-08-08T14:57:34;19.30;99.90
26262;DHT22;13988;52.446;13.280;2023-08-08T14:59:59;19.10;99.90
26262;DHT22;13988;52.446;13.280;2023-08-08T15:02:28;18.90;99.90
26262;DHT22;13988;52.446;13.280;2023-08-08T15:04:53;19.10;99.90
26262;DHT22;13988;52.446;13.280;2023-08-08T15:07:19;19.10;99.90
26262;DHT22;13988;52.446;13.280;2023-08-08T15:09:45;19.30;99.90
26262;DHT22;13988;52.446;13.280;2023-08-08T15:12:14;19.10;99.90